Time;durP1;ratioP1;P1;durP2;ratioP2;P2;SDS_P1;SDS_P2;PMS_P1;PMS_P2;Temp;Humidity;BMP_temperature;BMP_pressure;BME280_temperature;BME280_humidity;BME280_pressure;Samples;Min_cycle;Max_cycle;Signal;HPM_P1;HPM_P2
2023/07/25 00:00:11;;;;;;;1.00;1.00;;;23.70;46.10;;;;;;4975250;28;20282;-61
2023/07/25 00:02:37;;;;;;;1.20;1.10;;;23.70;46.10;;;;;;4973801;28;23390;-61
2023/07/25 00:05:06;;;;;;;0.93;0.93;;;23.60;46.10;;;;;;4980357;28;20477;-62
2023/07/25 00:07:31;;;;;;;1.00;0.97;;;23.70;46.10;;;;;;4992476;28;20234;-62
2023/07/25 00:09:58;;;;;;;1.20;1.10;;;23.60;46.00;;;;;;4985832;28;20459;-63
2023/07/25 00:12:23;;;;;;;1.13;1.03;;;23.60;46.10;;;;;;4983686;28;20773;-62
2023/07/25 00:14:49;;;;;;;1.13;1.07;;;23.60;46.10;;;;;;4975264;28;21308;-62
2023/07/25 00:17:15;;;;;;;1.20;1.10;;;23.60;46.10;;;;;;4975242;28;20224;-62
2023/07/25 00:19:40;;;;;;;1.20;1.10;;;23.60;46.10;;;;;;4987155;28;20215;-61
2023/07/25 00:22:06;;;;;;;1.10;1.00;;;23.60;46.00;;;;;;5014023;28;20239;-62
2023/07/25 00:24:31;;;;;;;1.10;1.10;;;23.60;46.10;;;;;;4988976;28;20249;-62
2023/07/25 00:26:57;;;;;;;1.00;1.00;;;23.60;46.10;;;;;;4978252;28;20242;-63
2023/07/25 00:29:22;;;;;;;1.20;1.10;;;23.70;46.10;;;;;;4976081;28;20724;-63
2023/07/25 00:31:48;;;;;;;1.13;1.03;;;23.60;46.10;;;;;;4975090;28;20259;-61
2023/07/25 00:34:14;;;;;;;1.23;1.13;;;23.60;46.00;;;;;;4980221;28;20991;-62
2023/07/25 00:36:39;;;;;;;1.13;1.03;;;23.60;46.10;;;;;;4974666;28;20602;-62
2023/07/25 00:39:05;;;;;;;1.13;1.03;;;23.60;46.10;;;;;;4977698;28;20273;-62
2023/07/25 00:41:31;;;;;;;0.90;0.90;;;23.60;46.10;;;;;;4978489;28;20228;-62
2023/07/25 00:43:56;;;;;;;1.10;1.00;;;23.60;46.00;;;;;;4976145;28;20227;-62
2023/07/25 00:46:22;;;;;;;0.90;0.90;;;23.60;46.00;;;;;;4973801;28;20228;-63
2023/07/25 00:48:48;;;;;;;1.03;1.03;;;23.60;46.10;;;;;;4974956;28;20224;-62
2023/07/25 00:51:13;;;;;;;1.17;1.07;;;23.60;46.00;;;;;;4975074;28;20311;-62
2023/07/25 00:53:39;;;;;;;1.13;1.03;;;23.60;46.80;;;;;;4975688;28;20223;-61
2023/07/25 00:56:06;;;;;;;1.23;1.13;;;23.60;46.10;;;;;;4975144;28;20225;-62
2023/07/25 00:58:31;;;;;;;0.97;0.87;;;23.60;46.10;;;;;;4981856;28;20248;-62
2023/07/25 01:01:05;;;;;;;0.90;0.87;;;23.60;46.10;;;;;;4997331;28;20459;-61
2023/07/25 01:03:36;;;;;;;1.20;1.10;;;23.60;46.00;;;;;;4996103;28;20430;-63
2023/07/25 01:06:03;;;;;;;1.20;1.10;;;23.60;46.00;;;;;;4993978;28;20576;-62
2023/07/25 01:08:28;;;;;;;0.93;0.90;;;23.60;46.00;;;;;;4995674;28;20499;-62
2023/07/25 01:10:54;;;;;;;1.10;1.00;;;23.70;46.10;;;;;;4997087;28;20473;-61
2023/07/25 01:13:20;;;;;;;0.90;0.90;;;23.60;46.00;;;;;;4998196;28;20228;-61
2023/07/25 01:15:47;;;;;;;0.90;0.90;;;23.70;46.10;;;;;;4993571;28;20765;-61
2023/07/25 01:18:13;;;;;;;0.90;0.90;;;23.70;46.10;;;;;;4996563;28;20937;-62
2023/07/25 01:20:40;;;;;;;1.00;1.00;;;23.60;46.00;;;;;;4996091;28;20442;-61
2023/07/25 01:23:06;;;;;;;1.17;1.07;;;23.60;46.10;;;;;;4996575;28;20462;-62
2023/07/25 01:25:32;;;;;;;1.10;1.00;;;23.60;46.10;;;;;;4995700;28;20973;-61
2023/07/25 01:27:57;;;;;;;0.90;0.90;;;23.60;46.00;;;;;;4997853;28;20527;-62
2023/07/25 01:30:23;;;;;;;1.10;1.00;;;23.70;46.10;;;;;;4995513;28;20223;-62
2023/07/25 01:32:48;;;;;;;1.30;1.20;;;23.60;46.10;;;;;;4994837;28;20318;-62
2023/07/25 01:35:14;;;;;;;1.00;0.93;;;23.60;46.00;;;;;;4992963;28;20220;-61
2023/07/25 01:37:39;;;;;;;0.90;0.90;;;23.60;46.00;;;;;;4996733;28;20223;-61
2023/07/25 01:40:06;;;;;;;1.00;0.90;;;23.60;46.10;;;;;;4992704;28;20511;-61
2023/07/25 01:42:31;;;;;;;1.07;0.97;;;23.60;46.00;;;;;;5016893;28;20913;-62
2023/07/25 01:44:57;;;;;;;1.00;1.00;;;23.60;46.10;;;;;;4981386;28;20473;-61
2023/07/25 01:47:25;;;;;;;0.80;0.80;;;23.60;46.00;;;;;;4974310;28;20587;-61
2023/07/25 01:49:52;;;;;;;1.10;1.00;;;23.60;46.10;;;;;;4975449;28;20220;-61
2023/07/25 01:52:18;;;;;;;1.00;0.90;;;23.60;46.10;;;;;;4973141;28;20466;-61
2023/07/25 01:54:43;;;;;;;1.00;0.97;;;23.60;46.00;;;;;;4991375;28;20542;-61
2023/07/25 01:57:09;;;;;;;0.80;0.80;;;23.60;46.10;;;;;;4975512;28;20601;-61
2023/07/25 01:59:35;;;;;;;0.90;0.90;;;23.60;46.10;;;;;;4972788;28;20229;-62
2023/07/25 02:02:00;;;;;;;0.93;0.90;;;23.60;46.10;;;;;;4973418;28;20346;-61
2023/07/25 02:04:26;;;;;;;1.10;1.00;;;23.60;46.00;;;;;;4975701;28;20333;-61
2023/07/25 02:06:51;;;;;;;1.00;1.00;;;23.60;46.10;;;;;;4976173;28;20241;-61
2023/07/25 02:09:17;;;;;;;0.90;0.90;;;23.60;46.10;;;;;;4987362;28;20251;-62
2023/07/25 02:11:42;;;;;;;0.90;0.90;;;23.60;46.10;;;;;;4994574;28;20717;-61
2023/07/25 02:14:08;;;;;;;0.90;0.90;;;23.60;46.10;;;;;;4982007;28;20224;-61
2023/07/25 02:16:36;;;;;;;0.90;0.90;;;23.60;46.10;;;;;;4973092;28;20240;-63
2023/07/25 02:19:03;;;;;;;1.10;1.00;;;23.60;46.10;;;;;;4974169;28;20255;-62
2023/07/25 02:21:28;;;;;;;1.00;0.93;;;23.60;46.10;;;;;;4983704;28;20512;-62
2023/07/25 02:23:54;;;;;;;0.80;0.80;;;23.60;46.00;;;;;;4990347;28;20458;-61
2023/07/25 02:26:20;;;;;;;0.90;0.90;;;23.60;46.10;;;;;;4993008;28;20222;-61
2023/07/25 02:28:45;;;;;;;1.10;1.00;;;23.60;46.10;;;;;;4996457;28;20247;-61
2023/07/25 02:31:11;;;;;;;0.90;0.90;;;23.60;46.00;;;;;;4995366;28;20254;-61
2023/07/25 02:33:38;;;;;;;0.97;0.97;;;23.60;46.00;;;;;;4996466;28;21043;-61
2023/07/25 02:36:04;;;;;;;0.90;0.90;;;23.60;46.10;;;;;;4996783;28;20227;-62
2023/07/25 02:38:29;;;;;;;2.57;1.00;;;23.60;46.10;;;;;;4994181;28;20979;-62
2023/07/25 02:40:55;;;;;;;0.87;0.87;;;23.60;46.10;;;;;;4997479;28;20242;-61
2023/07/25 02:43:24;;;;;;;1.00;0.90;;;23.60;46.10;;;;;;4994147;28;20242;-62
2023/07/25 02:45:50;;;;;;;0.70;0.70;;;23.60;46.10;;;;;;4994699;28;20231;-62
2023/07/25 02:48:16;;;;;;;1.13;1.00;;;23.60;46.10;;;;;;4992931;28;20464;-62
2023/07/25 02:50:42;;;;;;;0.87;0.83;;;23.60;46.00;;;;;;4991771;28;20450;-61
2023/07/25 02:53:07;;;;;;;1.00;0.93;;;23.60;46.10;;;;;;4997450;28;20228;-62
2023/07/25 02:55:33;;;;;;;1.00;1.00;;;23.60;46.10;;;;;;4994498;28;20314;-62
2023/07/25 02:57:59;;;;;;;0.80;0.80;;;23.60;46.10;;;;;;4991255;28;20259;-61
2023/07/25 03:00:24;;;;;;;0.80;0.80;;;23.60;46.10;;;;;;4985180;28;20220;-61
2023/07/25 03:02:50;;;;;;;0.80;0.80;;;23.60;46.10;;;;;;4972536;28;20225;-61
2023/07/25 03:05:16;;;;;;;0.90;0.90;;;23.60;46.10;;;;;;4974165;28;20818;-62
2023/07/25 03:07:42;;;;;;;0.80;0.80;;;23.60;46.10;;;;;;4974199;28;20239;-62
2023/07/25 03:10:08;;;;;;;0.90;0.90;;;23.60;46.10;;;;;;4973609;28;20461;-62
2023/07/25 03:12:33;;;;;;;0.97;0.90;;;23.60;46.10;;;;;;4975304;28;20311;-62
2023/07/25 03:14:59;;;;;;;0.93;0.93;;;23.60;46.10;;;;;;4980483;28;20231;-63
2023/07/25 03:17:24;;;;;;;0.90;0.90;;;23.60;46.10;;;;;;4973321;28;20232;-61
2023/07/25 03:19:50;;;;;;;0.77;0.77;;;23.60;46.10;;;;;;4981072;28;20723;-62
2023/07/25 03:22:19;;;;;;;1.13;1.03;;;23.60;46.10;;;;;;4972109;28;20279;-61
2023/07/25 03:24:45;;;;;;;1.97;1.00;;;23.60;46.10;;;;;;4979837;28;20219;-62
2023/07/25 03:27:10;;;;;;;1.07;1.03;;;23.60;46.10;;;;;;4982603;28;20459;-61
2023/07/25 03:29:36;;;;;;;0.87;0.87;;;23.60;46.10;;;;;;4972947;28;20219;-62
2023/07/25 03:32:02;;;;;;;1.00;1.00;;;23.60;46.10;;;;;;4970323;28;20316;-62
2023/07/25 03:34:27;;;;;;;0.97;0.97;;;23.60;46.10;;;;;;4981859;28;21066;-61
2023/07/25 03:36:53;;;;;;;1.77;0.87;;;23.60;46.10;;;;;;4974036;28;20602;-61
2023/07/25 03:39:20;;;;;;;0.70;0.70;;;23.60;46.10;;;;;;4980830;28;20217;-61
2023/07/25 03:41:45;;;;;;;1.00;1.00;;;23.60;46.10;;;;;;4984716;28;20314;-61
2023/07/25 03:44:16;;;;;;;0.80;0.80;;;23.60;46.10;;;;;;4995168;28;20841;-61
2023/07/25 03:46:42;;;;;;;1.00;1.00;;;23.60;46.10;;;;;;4988260;28;20224;-62
2023/07/25 03:49:08;;;;;;;0.90;0.90;;;23.60;46.10;;;;;;4975716;28;20840;-61
2023/07/25 03:51:33;;;;;;;1.00;0.80;;;23.60;46.10;;;;;;4987450;28;20233;-61
2023/07/25 03:53:59;;;;;;;1.07;0.97;;;23.60;46.10;;;;;;4993211;28;20335;-62
2023/07/25 03:56:25;;;;;;;1.00;1.00;;;23.60;46.00;;;;;;4974942;28;20219;-61
2023/07/25 03:58:50;;;;;;;0.93;0.83;;;23.60;46.10;;;;;;4976095;28;20252;-61
2023/07/25 04:01:16;;;;;;;1.10;1.00;;;23.60;46.10;;;;;;4975836;28;20641;-62
2023/07/25 04:03:41;;;;;;;0.80;0.80;;;23.60;46.10;;;;;;4979035;28;20642;-61
2023/07/25 04:06:07;;;;;;;0.87;0.87;;;23.60;46.10;;;;;;4975608;28;20821;-61
2023/07/25 04:08:32;;;;;;;1.10;1.00;;;23.60;46.10;;;;;;4981147;28;20703;-62
2023/07/25 04:10:58;;;;;;;0.80;0.80;;;23.60;46.10;;;;;;4975626;28;20359;-61
2023/07/25 04:13:23;;;;;;;1.10;1.10;;;23.60;46.10;;;;;;4977407;28;20430;-62
2023/07/25 04:15:49;;;;;;;0.90;0.90;;;23.60;46.10;;;;;;4974432;28;20232;-61
2023/07/25 04:18:14;;;;;;;0.93;0.93;;;23.60;46.10;;;;;;4977990;28;20692;-61
2023/07/25 04:20:40;;;;;;;1.00;1.00;;;23.60;46.10;;;;;;4978605;28;20302;-62
2023/07/25 04:23:05;;;;;;;1.00;1.00;;;23.60;46.10;;;;;;4978161;28;20316;-61
2023/07/25 04:25:31;;;;;;;0.70;0.70;;;23.60;47.00;;;;;;4976974;28;20220;-63
2023/07/25 04:27:56;;;;;;;1.10;0.90;;;23.60;46.10;;;;;;4981479;28;20248;-62
2023/07/25 04:30:22;;;;;;;1.10;1.00;;;23.60;46.10;;;;;;4979348;28;20771;-61
2023/07/25 04:32:47;;;;;;;1.10;1.00;;;23.60;46.10;;;;;;4981012;28;20245;-62
2023/07/25 04:35:13;;;;;;;1.10;1.00;;;23.60;46.20;;;;;;4974655;28;20307;-61
2023/07/25 04:37:38;;;;;;;0.90;0.90;;;23.60;46.10;;;;;;4975543;28;20216;-61
2023/07/25 04:40:04;;;;;;;0.90;0.90;;;23.60;46.10;;;;;;4975123;28;20819;-61
2023/07/25 04:42:30;;;;;;;1.27;1.17;;;23.60;46.10;;;;;;4981806;28;20711;-63
2023/07/25 04:44:55;;;;;;;0.90;0.90;;;23.60;46.10;;;;;;4983295;28;20465;-61
2023/07/25 04:47:21;;;;;;;0.80;0.80;;;23.60;46.10;;;;;;4997089;28;20247;-62
2023/07/25 04:49:46;;;;;;;1.00;0.87;;;23.60;46.10;;;;;;4994887;28;20226;-62
2023/07/25 04:52:12;;;;;;;0.90;0.90;;;23.60;46.10;;;;;;4974866;28;20255;-62
2023/07/25 04:54:37;;;;;;;0.80;0.80;;;23.60;46.10;;;;;;4977684;28;20235;-61
2023/07/25 04:57:03;;;;;;;1.07;0.97;;;23.60;46.10;;;;;;4979892;28;20231;-62
2023/07/25 04:59:28;;;;;;;0.80;0.80;;;23.60;46.10;;;;;;4985081;28;20233;-61
2023/07/25 05:01:54;;;;;;;0.93;0.90;;;23.60;46.00;;;;;;4986144;28;20259;-61
2023/07/25 05:04:19;;;;;;;1.00;0.90;;;23.60;46.00;;;;;;4975875;28;20228;-61
2023/07/25 05:06:45;;;;;;;0.90;0.90;;;23.60;46.10;;;;;;4992938;28;20227;-62
2023/07/25 05:09:10;;;;;;;0.83;0.80;;;23.60;46.10;;;;;;4990617;28;20228;-62
2023/07/25 05:11:36;;;;;;;0.90;0.90;;;23.60;46.00;;;;;;4988022;28;20219;-61
2023/07/25 05:14:02;;;;;;;0.90;0.87;;;23.60;46.00;;;;;;4985219;28;20221;-62
2023/07/25 05:16:27;;;;;;;1.07;0.97;;;23.60;46.00;;;;;;4980496;28;20216;-62
2023/07/25 05:18:53;;;;;;;0.90;0.90;;;23.60;46.00;;;;;;4994433;28;20683;-62
2023/07/25 05:21:18;;;;;;;0.90;0.90;;;23.60;46.00;;;;;;4993260;28;20219;-61
2023/07/25 05:23:44;;;;;;;0.90;0.90;;;23.60;46.00;;;;;;4996187;28;20211;-61
2023/07/25 05:26:09;;;;;;;1.10;1.00;;;23.60;46.00;;;;;;4992845;28;20576;-63
2023/07/25 05:28:35;;;;;;;1.10;1.00;;;23.60;46.00;;;;;;4997298;28;20322;-61
2023/07/25 05:31:00;;;;;;;0.90;0.90;;;23.60;46.80;;;;;;4995026;28;20281;-62
2023/07/25 05:33:26;;;;;;;0.83;0.83;;;23.60;46.00;;;;;;4996344;28;20227;-61
2023/07/25 05:36:02;;;;;;;1.00;1.00;;;23.60;46.00;;;;;;4993263;28;20907;-62
2023/07/25 05:38:27;;;;;;;0.90;0.90;;;23.70;46.10;;;;;;4997303;28;20249;-62
2023/07/25 05:40:55;;;;;;;1.10;1.00;;;23.60;46.00;;;;;;4993946;28;20453;-62
2023/07/25 05:43:20;;;;;;;0.97;0.97;;;23.60;46.00;;;;;;4996180;28;20220;-62
2023/07/25 05:45:45;;;;;;;0.80;0.80;;;23.60;46.00;;;;;;4995256;28;20985;-61
2023/07/25 05:48:11;;;;;;;0.93;0.93;;;23.60;46.00;;;;;;4996453;28;20243;-62
2023/07/25 05:50:36;;;;;;;1.10;1.00;;;23.60;46.00;;;;;;4991657;28;20289;-62
2023/07/25 05:53:02;;;;;;;1.00;1.00;;;23.70;46.10;;;;;;4995574;28;20235;-61
2023/07/25 05:55:28;;;;;;;0.90;0.90;;;23.70;46.00;;;;;;4984468;28;20260;-61
2023/07/25 05:57:54;;;;;;;1.50;1.40;;;23.60;46.00;;;;;;4989577;28;20260;-61
2023/07/25 06:00:19;;;;;;;1.20;1.00;;;23.60;46.00;;;;;;4984913;28;20231;-61
2023/07/25 06:02:45;;;;;;;0.90;0.90;;;23.60;46.00;;;;;;4994392;28;20661;-62
2023/07/25 06:05:10;;;;;;;0.90;0.90;;;23.60;46.00;;;;;;4986339;28;20232;-61
2023/07/25 06:07:36;;;;;;;0.80;0.80;;;23.60;46.00;;;;;;4972920;28;20331;-62
2023/07/25 06:10:01;;;;;;;0.90;0.90;;;23.60;46.00;;;;;;4973674;28;20691;-62
2023/07/25 06:12:27;;;;;;;0.93;0.83;;;23.60;46.00;;;;;;4974764;28;20260;-61
2023/07/25 06:14:52;;;;;;;1.10;1.00;;;23.60;46.00;;;;;;4977795;28;20228;-62
2023/07/25 06:17:18;;;;;;;1.03;0.93;;;23.60;46.00;;;;;;4977533;28;20230;-62
2023/07/25 06:19:43;;;;;;;1.20;1.10;;;23.60;46.00;;;;;;4988202;28;20248;-61
2023/07/25 06:22:09;;;;;;;1.93;0.90;;;23.60;46.00;;;;;;4976005;28;20228;-61
2023/07/25 06:24:35;;;;;;;0.83;0.83;;;23.60;46.00;;;;;;4976852;28;20229;-61
2023/07/25 06:27:01;;;;;;;0.97;0.97;;;23.60;46.00;;;;;;4984466;28;20502;-62
2023/07/25 06:29:26;;;;;;;1.00;1.00;;;23.60;46.00;;;;;;4976389;28;20223;-61
2023/07/25 06:31:51;;;;;;;1.10;1.00;;;23.60;46.00;;;;;;4984228;28;20243;-62
2023/07/25 06:34:17;;;;;;;0.97;0.87;;;23.60;45.90;;;;;;4984636;28;20226;-63
2023/07/25 06:36:43;;;;;;;1.13;1.03;;;23.60;46.00;;;;;;4995885;28;20556;-62
2023/07/25 06:39:08;;;;;;;0.80;0.80;;;23.60;45.90;;;;;;5001030;28;20637;-61
2023/07/25 06:41:34;;;;;;;1.00;0.90;;;23.60;46.00;;;;;;4991097;28;20234;-62
2023/07/25 06:43:59;;;;;;;1.23;1.13;;;23.60;46.00;;;;;;4991255;28;20228;-64
2023/07/25 06:46:25;;;;;;;1.20;1.10;;;23.60;46.00;;;;;;4992749;28;20230;-62
2023/07/25 06:48:52;;;;;;;0.93;0.93;;;23.60;46.00;;;;;;4992924;28;20291;-61
2023/07/25 06:51:20;;;;;;;1.20;1.10;;;23.60;46.00;;;;;;4995424;28;20230;-61
2023/07/25 06:53:46;;;;;;;1.20;1.10;;;23.60;46.00;;;;;;4985994;28;20454;-61
2023/07/25 06:56:11;;;;;;;1.30;1.20;;;23.60;46.00;;;;;;4985136;28;20449;-61
2023/07/25 06:58:37;;;;;;;1.00;1.00;;;23.60;45.90;;;;;;4994850;28;20243;-63
2023/07/25 07:01:02;;;;;;;1.30;1.20;;;23.60;46.70;;;;;;4992794;28;20235;-61
2023/07/25 07:03:28;;;;;;;1.00;0.90;;;23.60;45.90;;;;;;4994088;28;20223;-62
2023/07/25 07:05:56;;;;;;;1.10;1.00;;;23.60;45.90;;;;;;4992513;28;20272;-62
2023/07/25 07:08:22;;;;;;;1.20;1.10;;;23.70;46.00;;;;;;4996114;28;20239;-62
2023/07/25 07:10:55;;;;;;;0.90;0.90;;;23.60;46.00;;;;;;4991584;28;20453;-62
2023/07/25 07:13:22;;;;;;;1.17;1.07;;;23.60;45.90;;;;;;4975065;28;20228;-61
2023/07/25 07:15:48;;;;;;;1.00;1.00;;;23.60;46.00;;;;;;4971364;28;20481;-63
2023/07/25 07:18:14;;;;;;;1.00;0.90;;;23.60;45.90;;;;;;4974657;28;20537;-61
2023/07/25 07:20:43;;;;;;;0.93;0.90;;;23.60;46.00;;;;;;4975809;28;20557;-62
2023/07/25 07:23:09;;;;;;;1.10;1.00;;;23.60;45.90;;;;;;4976093;28;20226;-61
2023/07/25 07:25:36;;;;;;;1.00;1.00;;;23.60;46.00;;;;;;4978192;28;20454;-62
2023/07/25 07:28:02;;;;;;;1.10;1.00;;;23.60;46.00;;;;;;4972517;28;20232;-62
2023/07/25 07:30:28;;;;;;;1.30;1.20;;;23.60;46.00;;;;;;4973480;28;20466;-61
2023/07/25 07:32:55;;;;;;;1.00;1.00;;;23.70;46.00;;;;;;4977920;28;20231;-61
2023/07/25 07:35:21;;;;;;;0.90;0.90;;;23.60;46.00;;;;;;4991136;28;20219;-61
2023/07/25 07:37:46;;;;;;;1.00;1.00;;;23.70;46.00;;;;;;4993524;28;20464;-62
2023/07/25 07:40:12;;;;;;;1.10;1.00;;;23.70;46.00;;;;;;4991118;28;20232;-61
2023/07/25 07:42:37;;;;;;;0.90;0.90;;;23.70;46.00;;;;;;4984408;28;20283;-62
2023/07/25 07:45:03;;;;;;;1.10;1.00;;;23.70;46.00;;;;;;4992066;28;20265;-62
2023/07/25 07:47:29;;;;;;;1.03;1.00;;;23.70;46.00;;;;;;4973632;28;20295;-61
2023/07/25 07:49:54;;;;;;;1.30;1.20;;;23.70;46.00;;;;;;4976186;28;20259;-61
2023/07/25 07:52:20;;;;;;;1.10;1.10;;;23.70;46.00;;;;;;4972870;28;20234;-61
2023/07/25 07:54:45;;;;;;;0.90;0.90;;;23.70;46.00;;;;;;4975349;28;20220;-62
2023/07/25 07:57:11;;;;;;;0.90;0.90;;;23.70;46.10;;;;;;4972918;28;20240;-62
2023/07/25 07:59:36;;;;;;;1.43;1.33;;;23.70;46.00;;;;;;4971539;28;20251;-62
2023/07/25 08:02:02;;;;;;;0.97;0.97;;;23.70;46.00;;;;;;4973889;28;20587;-62
2023/07/25 08:04:27;;;;;;;1.30;1.20;;;23.70;46.00;;;;;;4972786;28;20307;-62
2023/07/25 08:06:53;;;;;;;1.30;1.20;;;23.70;46.00;;;;;;4973511;28;20260;-61
2023/07/25 08:09:18;;;;;;;1.00;1.00;;;23.70;46.00;;;;;;4971950;28;20235;-61
2023/07/25 08:11:44;;;;;;;1.07;1.00;;;23.70;46.00;;;;;;4982739;28;20669;-64
2023/07/25 08:14:09;;;;;;;1.10;1.00;;;23.70;46.00;;;;;;4993826;28;21153;-62
2023/07/25 08:16:35;;;;;;;0.90;0.90;;;23.70;46.10;;;;;;4971622;28;20228;-61
2023/07/25 08:19:01;;;;;;;0.97;0.97;;;23.70;46.00;;;;;;4970188;28;20727;-61
2023/07/25 08:21:26;;;;;;;1.10;1.00;;;23.70;46.00;;;;;;4981610;28;20739;-61
2023/07/25 08:23:52;;;;;;;1.30;1.20;;;23.70;46.00;;;;;;4982989;28;20740;-61
2023/07/25 08:26:17;;;;;;;1.03;1.00;;;23.70;46.00;;;;;;4973009;28;20255;-61
2023/07/25 08:28:42;;;;;;;0.90;0.90;;;23.60;46.00;;;;;;4994244;28;20379;-61
2023/07/25 08:31:08;;;;;;;1.00;1.00;;;23.60;46.00;;;;;;4984058;28;20351;-62
2023/07/25 08:33:34;;;;;;;1.30;1.20;;;23.70;46.10;;;;;;4973634;28;20217;-62
2023/07/25 08:36:00;;;;;;;1.00;1.00;;;23.70;46.00;;;;;;4978584;28;20315;-62
2023/07/25 08:38:27;;;;;;;1.20;1.10;;;23.60;46.00;;;;;;4972311;28;20455;-61
2023/07/25 08:41:08;;;;;;;1.13;1.03;;;23.60;45.90;;;;;;4972084;28;20461;-61
2023/07/25 08:43:40;;;;;;;1.00;0.97;;;23.70;46.00;;;;;;4986447;28;20458;-61
2023/07/25 08:46:10;;;;;;;0.80;0.80;;;23.60;45.90;;;;;;4974579;28;20917;-61
2023/07/25 08:48:41;;;;;;;1.10;1.00;;;23.70;46.00;;;;;;4975527;28;20465;-61
2023/07/25 08:51:19;;;;;;;1.10;1.00;;;23.70;46.00;;;;;;4985872;28;20531;-62
2023/07/25 08:53:59;;;;;;;1.10;1.00;;;23.60;46.00;;;;;;4976920;28;20449;-61
2023/07/25 08:56:26;;;;;;;1.20;1.10;;;23.70;46.00;;;;;;4974445;28;20455;-62
2023/07/25 08:58:54;;;;;;;1.27;1.17;;;23.60;46.00;;;;;;4979906;28;20474;-61
2023/07/25 09:01:20;;;;;;;1.13;1.03;;;23.60;46.00;;;;;;4972880;28;20475;-62
2023/07/25 09:03:47;;;;;;;1.23;1.13;;;23.60;46.00;;;;;;4975574;28;20528;-63
2023/07/25 09:06:13;;;;;;;1.13;1.13;;;23.60;46.00;;;;;;4975339;28;20454;-61
2023/07/25 09:08:39;;;;;;;0.90;0.90;;;23.70;46.10;;;;;;4976317;28;20459;-62
2023/07/25 09:11:06;;;;;;;0.90;0.90;;;23.60;46.00;;;;;;4988474;28;20457;-63
2023/07/25 09:13:32;;;;;;;1.03;1.03;;;23.60;46.00;;;;;;4996525;28;20255;-62
2023/07/25 09:15:58;;;;;;;1.13;1.03;;;23.70;46.00;;;;;;4987924;28;20458;-61
2023/07/25 09:18:23;;;;;;;1.10;1.00;;;23.60;46.00;;;;;;4974444;28;20400;-62
2023/07/25 09:20:49;;;;;;;0.87;0.87;;;23.60;46.00;;;;;;4987410;28;20308;-62
2023/07/25 09:23:21;;;;;;;1.20;1.10;;;23.70;46.00;;;;;;4998890;28;20227;-61
2023/07/25 09:25:48;;;;;;;1.00;0.90;;;23.60;46.00;;;;;;4975779;28;20307;-62
2023/07/25 09:28:13;;;;;;;0.90;0.90;;;23.60;46.00;;;;;;4995498;28;20452;-62
2023/07/25 09:30:48;;;;;;;1.00;1.00;;;23.60;46.00;;;;;;4994406;28;20460;-62
2023/07/25 09:33:27;;;;;;;1.07;1.07;;;23.70;46.10;;;;;;4990703;28;20686;-61
2023/07/25 09:35:53;;;;;;;1.30;1.07;;;23.70;46.00;;;;;;4972197;28;20876;-62
2023/07/25 09:38:19;;;;;;;1.00;1.00;;;23.60;46.00;;;;;;4975501;28;20457;-62
2023/07/25 09:40:48;;;;;;;0.90;0.90;;;23.60;46.00;;;;;;4979944;28;20952;-62
2023/07/25 09:43:27;;;;;;;1.00;1.00;;;23.70;46.00;;;;;;4978945;28;20558;-62
2023/07/25 09:45:55;;;;;;;1.63;1.10;;;23.70;46.00;;;;;;4995213;28;20458;-62
2023/07/25 09:48:21;;;;;;;1.23;1.13;;;23.70;46.00;;;;;;4994769;28;20568;-62
2023/07/25 09:50:47;;;;;;;1.10;1.00;;;23.70;46.00;;;;;;4980269;28;20468;-61
2023/07/25 09:53:15;;;;;;;1.20;1.10;;;23.70;46.00;;;;;;4993876;28;20473;-61
2023/07/25 09:55:42;;;;;;;1.10;1.10;;;23.70;46.00;;;;;;4985655;28;20243;-61
2023/07/25 09:58:08;;;;;;;1.20;1.10;;;23.70;46.00;;;;;;4981840;28;20951;-61
2023/07/25 10:00:34;;;;;;;1.00;0.90;;;23.70;46.80;;;;;;4974838;28;20603;-61
2023/07/25 10:02:59;;;;;;;0.90;0.90;;;23.70;46.00;;;;;;4977849;28;20271;-61
2023/07/25 10:05:26;;;;;;;0.93;0.93;;;23.70;46.00;;;;;;4987200;28;20572;-62
2023/07/25 10:07:56;;;;;;;1.20;1.10;;;23.70;46.00;;;;;;4983733;28;20263;-62
2023/07/25 10:10:24;;;;;;;0.83;0.83;;;23.70;45.90;;;;;;4977199;28;20481;-62
2023/07/25 10:12:50;;;;;;;1.10;1.00;;;23.70;46.00;;;;;;4974322;28;20450;-61
2023/07/25 10:15:17;;;;;;;2.20;1.20;;;23.70;45.90;;;;;;4981168;28;20516;-62
2023/07/25 10:17:42;;;;;;;0.90;0.90;;;23.70;45.90;;;;;;4991560;28;20228;-62
2023/07/25 10:20:08;;;;;;;1.10;1.00;;;23.70;45.90;;;;;;4992102;28;20453;-61
2023/07/25 10:22:44;;;;;;;0.90;0.90;;;23.70;45.90;;;;;;4996764;28;20311;-62
2023/07/25 10:25:10;;;;;;;1.10;1.00;;;23.70;45.90;;;;;;4992612;28;20223;-61
2023/07/25 10:27:35;;;;;;;3.67;1.20;;;23.70;45.90;;;;;;4977074;28;20482;-61
2023/07/25 10:30:02;;;;;;;1.20;1.10;;;23.70;45.90;;;;;;4975185;28;20231;-61
2023/07/25 10:32:46;;;;;;;1.13;1.03;;;23.70;45.90;;;;;;4975515;28;20684;-61
2023/07/25 10:35:12;;;;;;;1.20;1.10;;;23.70;45.90;;;;;;4976400;28;20458;-61
2023/07/25 10:37:44;;;;;;;1.17;1.10;;;23.70;45.90;;;;;;4982500;28;20460;-62
2023/07/25 10:40:12;;;;;;;1.23;1.13;;;23.70;45.90;;;;;;4994544;28;20452;-62
2023/07/25 10:42:47;;;;;;;1.30;1.20;;;23.70;45.90;;;;;;4974622;28;20469;-61
2023/07/25 10:45:44;;;;;;;1.00;0.90;;;23.70;45.90;;;;;;4974340;28;21031;-61
2023/07/25 10:48:33;;;;;;;1.20;1.10;;;23.70;45.80;;;;;;4974075;28;21013;-62
2023/07/25 10:51:06;;;;;;;1.20;1.10;;;23.70;45.90;;;;;;4988083;28;20542;-62
2023/07/25 10:53:32;;;;;;;1.30;1.20;;;23.70;45.90;;;;;;4995941;28;20462;-61
2023/07/25 10:56:04;;;;;;;1.10;1.00;;;23.70;45.90;;;;;;4987527;28;20873;-62
2023/07/25 10:58:33;;;;;;;1.10;1.00;;;23.70;45.90;;;;;;4988244;28;20469;-62
2023/07/25 11:01:00;;;;;;;1.00;1.00;;;23.70;45.80;;;;;;4979714;28;20465;-62
2023/07/25 11:03:33;;;;;;;0.83;0.83;;;23.70;45.90;;;;;;4975011;28;20541;-62
2023/07/25 11:06:08;;;;;;;1.20;1.10;;;23.70;45.90;;;;;;4979988;28;20592;-62
2023/07/25 11:08:41;;;;;;;1.17;1.00;;;23.70;45.90;;;;;;4992406;28;20460;-62
2023/07/25 11:11:11;;;;;;;1.20;1.10;;;23.70;45.90;;;;;;4980606;28;20468;-61
2023/07/25 11:13:38;;;;;;;0.80;0.80;;;23.70;45.80;;;;;;4976758;28;21107;-61
2023/07/25 11:16:05;;;;;;;1.30;1.20;;;23.70;45.90;;;;;;4981205;28;20462;-61
2023/07/25 11:18:37;;;;;;;1.00;1.00;;;23.70;45.90;;;;;;4992902;28;20464;-62
2023/07/25 11:21:07;;;;;;;1.03;0.97;;;23.70;45.80;;;;;;4992632;28;20536;-62
2023/07/25 11:23:33;;;;;;;1.27;1.17;;;23.70;45.80;;;;;;4989026;28;20451;-62
2023/07/25 11:26:02;;;;;;;0.80;0.80;;;23.70;45.80;;;;;;4973186;28;20461;-62
2023/07/25 11:28:28;;;;;;;1.20;1.00;;;23.70;46.60;;;;;;4982201;28;20466;-61
2023/07/25 11:30:55;;;;;;;1.03;0.97;;;23.70;45.80;;;;;;4976101;28;20448;-62
2023/07/25 11:33:21;;;;;;;0.93;0.90;;;23.70;45.90;;;;;;4982950;28;20469;-63
2023/07/25 11:35:54;;;;;;;1.10;1.00;;;23.70;45.80;;;;;;4976085;28;20844;-62
2023/07/25 11:38:20;;;;;;;0.90;0.90;;;23.70;45.80;;;;;;4972974;28;20220;-62
2023/07/25 11:40:51;;;;;;;1.20;1.10;;;23.70;45.80;;;;;;4973990;28;20980;-62
2023/07/25 11:43:17;;;;;;;1.30;1.20;;;23.70;45.80;;;;;;4974370;28;20442;-61
2023/07/25 11:45:44;;;;;;;0.90;0.90;;;23.70;45.80;;;;;;4984617;28;20980;-61
2023/07/25 11:48:12;;;;;;;1.10;1.10;;;23.70;45.80;;;;;;4972081;28;20542;-62
2023/07/25 11:50:37;;;;;;;1.10;1.00;;;23.70;45.80;;;;;;4974220;28;20545;-61
2023/07/25 11:53:03;;;;;;;1.00;1.00;;;23.70;45.80;;;;;;4980898;28;20545;-61
2023/07/25 11:55:29;;;;;;;1.00;0.90;;;23.70;45.80;;;;;;4977701;28;20243;-62
2023/07/25 11:57:55;;;;;;;1.00;1.00;;;23.70;45.80;;;;;;4973980;28;20233;-62
2023/07/25 12:00:22;;;;;;;1.27;1.17;;;23.70;45.80;;;;;;4973501;28;20478;-62
2023/07/25 12:02:48;;;;;;;1.10;1.10;;;23.70;45.90;;;;;;4974154;28;20215;-61
2023/07/25 12:05:30;;;;;;;1.00;1.00;;;23.60;45.70;;;;;;4983317;28;20541;-62
2023/07/25 12:08:02;;;;;;;0.90;0.90;;;23.70;45.80;;;;;;4992629;28;20540;-62
2023/07/25 12:10:30;;;;;;;1.20;1.10;;;23.70;45.80;;;;;;4991907;28;20454;-62
2023/07/25 12:12:58;;;;;;;1.27;1.17;;;23.70;45.80;;;;;;4989583;28;20877;-61
2023/07/25 12:15:42;;;;;;;1.10;1.00;;;23.70;45.90;;;;;;4990173;28;20516;-63
2023/07/25 12:18:26;;;;;;;1.17;1.07;;;23.70;45.90;;;;;;4991780;28;20453;-61
2023/07/25 12:20:52;;;;;;;1.10;1.00;;;23.60;45.80;;;;;;4981111;28;20458;-63
2023/07/25 12:23:24;;;;;;;1.00;0.90;;;23.60;45.80;;;;;;4981561;28;20456;-61
2023/07/25 12:25:50;;;;;;;1.30;1.20;;;23.60;45.80;;;;;;4974644;28;20485;-63
2023/07/25 12:28:15;;;;;;;1.23;1.13;;;23.60;45.70;;;;;;4976600;28;20552;-62
2023/07/25 12:30:41;;;;;;;1.30;1.20;;;23.60;45.70;;;;;;4976000;28;20630;-62
2023/07/25 12:33:07;;;;;;;1.10;1.00;;;23.60;45.70;;;;;;4976400;28;20675;-62
2023/07/25 12:35:32;;;;;;;1.30;1.20;;;23.60;45.70;;;;;;4974901;28;20458;-61
2023/07/25 12:37:58;;;;;;;1.20;1.10;;;23.60;45.70;;;;;;4977721;28;20231;-62
2023/07/25 12:40:23;;;;;;;1.20;1.10;;;23.60;45.70;;;;;;4981337;28;20216;-63
2023/07/25 12:42:49;;;;;;;1.10;1.00;;;23.60;45.70;;;;;;4992043;28;21031;-61
2023/07/25 12:45:14;;;;;;;1.40;1.30;;;23.60;45.70;;;;;;4997141;28;20655;-62